Latest Coastal Weather Observations for Larapuna (Eddystone Point)

IDT60701

Issued at 1:21 am EDT Friday 30 January 2015 (issued every 10 minutes, with the page automatically refreshed every 10 minutes)

About coastal observations | Map of coastal stations | Coastal observations for TAS | Marine services | Other Formats
Station Details ID: 092045 Name: LARAPUNA (EDDYSTONE POINT) Lat: -40.99 Lon: 148.35 Height: 19.7 m
Data from the previous 72 hours. | See also: Recent months at Larapuna (Eddystone Point)
Date/Time
EDT
Temp

°C
Wind Pressure Rain
since 9am
mm
Weather Cloud Vis
km
Sea
Height
m
Swell
Dir
 
Speed
knots
Gust
knots
hPa Trend Height
m
Period
s
Dir
30/01:00am 14.0 - - - 1016.7 - - - - - - - - -
 
Date/Time
EDT
Temp

°C
Wind Pressure Rain
since 9am
mm
Weather Cloud Vis
km
Sea
Height
m
Swell
Dir
 
Speed
knots
Gust
knots
hPa Trend Height
m
Period
s
Dir
29/11:30pm 14.4 S 33 41 1017.4 - - - - - - - - -
29/11:00pm 14.2 S 32 41 1018.0 - - - - - - - - -
29/10:51pm 14.3 S 32 42 1018.2 - - - - - - - - -
29/10:30pm 14.4 S 33 40 1018.3 - - - - - - - - -
29/10:00pm 14.3 S 32 43 1018.5 - - - - - - - - -
29/09:42pm 14.5 S 33 43 1018.4 - - - - - - - - -
29/09:30pm 14.5 S 35 42 1018.3 - - - - - - - - -
29/09:15pm 14.5 S 34 44 1018.4 - - - - - - - - -
29/09:00pm 14.4 S 37 43 1018.3 - 0.0 - - - - - - -
29/08:30pm 14.5 S 38 44 1018.3 - - - - - - - - -
29/08:00pm 14.8 S 34 41 1018.5 - - - - - - - - -
29/07:30pm 15.0 S 33 40 1018.6 - - - - - - - - -
29/07:00pm 15.2 S 31 40 1018.6 - - - - - - - - -
29/06:30pm 15.6 S 32 38 1018.5 - - - - - - - - -
29/06:00pm 15.9 S 32 38 1018.7 - - - - - - - - -
29/05:30pm 16.5 S 32 37 1018.9 - - - - - - - - -
29/05:00pm 17.1 S 33 39 1019.1 - - - - - - - - -
29/04:32pm 16.7 S 31 41 1019.3 - - - - - - - - -
29/04:30pm 16.4 S 31 39 1019.4 - - - - - - - - -
29/04:00pm 16.5 S 33 40 1019.7 - - - - - - - - -
29/03:30pm 16.0 SSE 30 37 1020.2 - - - - - - - - -
29/03:00pm 16.7 S 33 39 1020.0 - - - - - - - - -
29/02:30pm 16.7 S 31 37 1020.1 - - - - - - - - -
29/02:10pm 14.4 SSE 25 37 1020.3 - - - - - - - - -
29/02:00pm 13.8 SSE 27 33 1020.6 - - - - - - - - -
29/01:30pm 15.6 SSE 29 38 1020.3 - - - - - - - - -
29/01:00pm 15.0 SSE 27 34 1020.7 - - - - - - - - -
29/12:30pm 14.7 S 31 38 1020.6 - - - - - - - - -
29/12:00pm 14.4 S 30 36 1020.6 - - Recent precip. - - - - - -
29/11:30am 13.9 S 27 34 1020.7 - 56.4 - - - - - - -
29/11:21am 13.7 SSE 23 33 1021.0 - 56.4 - - - - - - -
29/11:10am 13.7 S 23 29 1021.2 - 55.8 - - - - - - -
29/11:00am 15.1 SSW 25 30 1020.9 - 55.4 - - - - - - -
29/10:30am 13.3 S 30 35 1020.8 - 55.0 - - - - - - -
29/10:00am 14.0 S 31 39 1020.8 - 55.0 - - - - - - -
29/09:00am 13.9 S 34 42 1020.7 - 3.4 Recent precip. - - - - - -
29/08:48am 13.7 S 33 43 1020.5 - 3.4 - - - - - - -
29/08:30am 14.8 S 33 41 1020.5 - 3.2 - - - - - - -
29/08:00am 14.3 S 34 41 1020.3 - 3.2 - - - - - - -
29/07:30am 14.4 S 35 43 1020.1 - 3.2 - - - - - - -
29/07:00am 13.9 S 35 42 1019.7 - 3.2 - - - - - - -
29/06:30am 13.9 S 32 39 1019.8 - 3.0 - - - - - - -
29/06:00am 13.4 SSE 33 41 1019.6 - 3.0 - - - - - - -
29/05:30am 13.4 S 33 42 1019.6 - 3.0 - - - - - - -
29/05:00am 13.4 S 31 37 1019.6 - 3.0 - - - - - - -
29/04:30am 13.0 S 31 38 1019.7 - 3.0 - - - - - - -
29/04:00am 12.8 S 29 36 1019.4 - 2.0 - - - - - - -
29/03:30am 13.5 S 28 35 1020.0 - 0.8 - - - - - - -
29/03:00am 13.5 S 30 38 1020.1 - 0.4 Recent precip. - - - - - -
29/02:30am 13.4 S 31 38 1020.2 - 0.4 - - - - - - -
29/02:00am 13.3 S 32 39 1020.6 - 0.2 - - - - - - -
29/01:30am 13.9 S 30 39 1020.8 - 0.0 - - - - - - -
29/01:28am 14.2 S 29 39 1020.7 - 0.0 - - - - - - -
29/01:00am 14.5 S 31 36 1020.8 - 0.0 - - - - - - -
29/12:30am 14.3 S 30 39 1021.2 - 0.0 - - - - - - -
29/12:00am 14.3 S 29 36 1021.3 - 0.0 - - - - - - -
 
Date/Time
EDT
Temp

°C
Wind Pressure Rain
since 9am
mm
Weather Cloud Vis
km
Sea
Height
m
Swell
Dir
 
Speed
knots
Gust
knots
hPa Trend Height
m
Period
s
Dir
28/11:30pm 14.2 S 29 35 1021.5 - 0.0 - - - - - - -
28/11:00pm 14.6 S 31 37 1021.6 - 0.0 - - - - - - -
28/10:30pm 14.6 S 32 38 1021.8 - 0.0 - - - - - - -
28/10:00pm 14.5 S 29 37 1022.0 - 0.0 - - - - - - -
28/09:30pm 14.7 S 31 37 1022.1 - 0.0 - - - - - - -
28/09:00pm 14.8 S 30 35 1022.0 - 0.0 - - - - - - -
28/08:30pm 14.6 S 30 36 1021.7 - 0.0 - - - - - - -
28/08:00pm 14.6 S 30 37 1021.7 - 0.0 - - - - - - -
28/07:30pm 14.5 SSE 31 38 1021.7 - 0.0 - - - - - - -
28/07:00pm 15.5 S 30 36 1021.5 - 0.0 - - - - - - -
28/06:30pm 15.7 S 29 35 1021.4 - 0.0 - - - - - - -
28/06:00pm 16.1 S 29 35 1021.3 - 0.0 - - - - - - -
28/05:30pm 16.5 SSE 29 35 1021.3 - 0.0 - - - - - - -
28/05:00pm 16.7 SSE 31 38 1021.3 - 0.0 - - - - - - -
28/04:30pm 16.6 S 31 37 1021.2 - 0.0 - - - - - - -
28/04:00pm 16.9 SSE 29 35 1021.3 - 0.0 - - - - - - -
28/03:30pm 17.2 SSE 30 37 1021.3 - 0.0 - - - - - - -
28/03:00pm 17.5 SSE 28 33 1021.6 - 0.0 - - - - - - -
28/02:30pm 17.8 S 27 33 1021.7 - 0.0 - - - - - - -
28/02:00pm 17.8 S 29 35 1021.7 - 0.0 - - - - - - -
28/01:30pm 17.2 SSE 28 33 1021.8 - 0.0 - - - - - - -
28/01:00pm 17.7 SSE 26 31 1021.8 - 0.0 - - - - - - -
28/12:30pm 16.6 S 26 32 1021.9 - 0.0 - - - - - - -
28/12:00pm 15.6 S 28 34 1021.8 - 0.0 - - - - - - -
28/11:30am 16.4 S 28 33 1022.0 - 0.0 - - - - - - -
28/11:00am 17.2 S 25 31 1021.9 - 0.0 - - - - - - -
28/10:30am 16.6 S 25 29 1021.9 - 0.0 - - - - - - -
28/10:00am 16.6 S 25 30 1021.8 - 0.0 - - - - - - -
28/09:30am 16.0 S 28 33 1021.4 - 0.0 - - - - - - -
28/09:00am 15.5 S 26 31 1021.4 - 4.2 - - - - - - -
28/08:30am 14.5 S 24 28 1021.2 - 4.2 - - - - - - -
28/08:00am 14.7 S 22 26 1020.9 - 4.2 - - - - - - -
28/07:30am 14.2 S 25 29 1020.6 - 4.2 - - - - - - -
28/07:00am 14.1 S 25 31 1020.2 - 4.2 - - - - - - -
28/06:30am 13.5 S 22 26 1020.0 - 4.2 - - - - - - -
28/06:00am 13.5 S 24 28 1019.7 - 4.2 - - - - - - -
28/05:30am 13.7 S 25 31 1019.3 - 4.2 - - - - - - -
28/05:00am 13.9 S 25 30 1019.1 - 4.2 - - - - - - -
28/04:30am 14.1 S 26 30 1019.2 - 4.2 - - - - - - -
28/04:00am 14.1 S 25 28 1019.2 - 4.2 - - - - - - -
28/03:30am 13.9 S 26 29 1019.4 - 4.2 - - - - - - -
28/03:00am 13.8 S 27 32 1019.5 - 4.2 - - - - - - -
28/02:30am 15.0 S 24 28 1019.5 - 4.2 - - - - - - -
28/02:00am 14.8 S 26 32 1019.5 - 4.2 - - - - - - -
28/01:53am 15.3 S 22 29 1019.6 - 4.2 - - - - - - -
28/01:30am 15.0 SSE 18 23 1019.8 - 4.2 - - - - - - -
28/01:00am 15.0 SSE 21 25 1019.7 - 4.2 - - - - - - -
28/12:30am 14.9 SSE 22 26 1019.6 - 4.2 - - - - - - -
28/12:00am 14.9 SSE 22 27 1019.7 - 4.2 - - - - - - -
 
Date/Time
EDT
Temp

°C
Wind Pressure Rain
since 9am
mm
Weather Cloud Vis
km
Sea
Height
m
Swell
Dir
 
Speed
knots
Gust
knots
hPa Trend Height
m
Period
s
Dir
27/11:30pm 14.9 SSE 22 27 1019.5 - 4.2 - - - - - - -
27/11:00pm 14.7 SSE 22 27 1019.5 - 4.2 - - - - - - -
27/10:30pm 14.9 SSE 24 28 1019.5 - 4.2 - - - - - - -
27/10:00pm 15.0 SSE 23 28 1019.3 - 4.2 - - - - - - -
27/09:30pm 14.8 SSE 22 27 1018.9 - 4.2 - - - - - - -
27/09:00pm 14.8 SSE 21 25 1018.6 - 4.2 Recent precip. - - - - - -
27/08:30pm 14.6 SSE 20 25 1018.3 - 4.2 - - - - - - -
27/08:00pm 15.3 SSE 17 20 1018.1 - 0.0 - - - - - - -
27/07:30pm 15.9 S 20 24 1017.8 - 0.0 - - - - - - -
27/07:13pm 17.0 S 12 22 1017.6 - 0.0 - - - - - - -
27/07:00pm 17.3 S 8 11 1017.6 - 0.0 - - - - - - -
27/06:30pm 17.4 SE 5 6 1017.2 - 0.0 - - - - - - -
27/06:00pm 17.5 ENE 5 7 1016.9 - 0.0 - - - - - - -
27/05:30pm 17.9 NE 7 9 1016.5 - 0.0 - - - - - - -
27/05:00pm 18.4 NNE 6 7 1016.5 - 0.0 - - - - - - -
27/04:30pm 19.1 N 9 11 1016.5 - 0.0 - - - - - - -
27/04:00pm 19.0 NNE 11 14 1016.4 - 0.0 - - - - - - -
27/03:30pm 18.5 NNE 12 15 1016.5 - 0.0 - - - - - - -
27/03:00pm 18.3 NNE 13 15 1016.4 - 0.0 - - - - - - -
27/02:30pm 18.7 NNE 13 15 1016.4 - 0.0 - - - - - - -
27/02:00pm 18.7 NNE 13 16 1016.5 - 0.0 - - - - - - -
27/01:30pm 18.4 NE 14 16 1016.7 - 0.0 - - - - - - -
27/01:00pm 18.5 NNE 13 15 1016.9 - 0.0 - - - - - - -
27/12:30pm 18.1 NNE 13 15 1016.8 - 0.0 - - - - - - -
27/12:00pm 18.3 NNE 12 14 1016.9 - 0.0 - - - - - - -
27/11:30am 18.5 NNE 12 13 1016.8 - 0.0 - - - - - - -
27/11:00am 18.3 NNE 11 13 1016.9 - 0.0 - - - - - - -
27/10:30am 18.0 NNE 11 13 1016.8 - 0.0 - - - - - - -
27/10:00am 18.2 N 9 11 1017.2 - 0.0 - - - - - - -
27/09:30am 17.6 N 9 11 1017.3 - 0.0 - - - - - - -
27/09:00am 17.4 N 6 7 1017.1 - 0.0 - - - - - - -
27/08:30am 16.5 N 6 7 1017.0 - 0.0 - - - - - - -
27/08:00am 15.4 NNW 5 7 1016.6 - 0.0 - - - - - - -
27/07:30am 14.3 NW 5 7 1016.5 - 0.0 - - - - - - -
27/07:00am 13.0 WNW 8 8 1016.4 - 0.0 - - - - - - -
27/06:30am 11.7 WNW 8 9 1016.4 - 0.0 - - - - - - -
27/06:00am 11.9 WNW 7 8 1016.2 - 0.0 - - - - - - -
27/05:30am 12.1 NW 7 8 1016.2 - 0.0 - - - - - - -
27/05:00am 12.6 NW 6 7 1015.9 - 0.0 - - - - - - -
27/04:30am 12.9 NW 7 7 1015.9 - 0.0 - - - - - - -
27/04:00am 13.1 NNW 6 7 1016.1 - 0.0 - - - - - - -
27/03:30am 13.1 NW 6 8 1016.3 - 0.0 - - - - - - -
27/03:00am 13.1 NW 6 7 1016.6 - 0.0 - - - - - - -
27/02:30am 13.6 NW 6 7 1016.8 - 0.0 - - - - - - -
27/02:00am 13.3 NW 6 7 1016.9 - 0.0 - - - - - - -
27/01:30am 14.1 NW 5 5 1017.0 - 0.0 - - - - - - -

Other Formats:

Comma delimited format used in spreadsheet applications
http://www.bom.gov.au/fwo/IDT60701/IDT60701.94983.axf

JavaScript Object Notation format (JSON) in row-major order
http://www.bom.gov.au/fwo/IDT60701/IDT60701.94983.json